sensor_id;sensor_type;location;lat;lon;timestamp;temperature;humidity
24800;DHT22;12897;50.812;4.430;2023-05-27T00:02:10;13.10;99.90
24800;DHT22;12897;50.812;4.430;2023-05-27T00:04:38;13.20;99.90
24800;DHT22;12897;50.812;4.430;2023-05-27T00:07:05;13.10;99.90
24800;DHT22;12897;50.812;4.430;2023-05-27T00:09:33;13.10;99.90
24800;DHT22;12897;50.812;4.430;2023-05-27T00:12:01;13.10;99.90
24800;DHT22;12897;50.812;4.430;2023-05-27T00:14:29;13.10;99.90
24800;DHT22;12897;50.812;4.430;2023-05-27T00:16:56;13.10;99.90
24800;DHT22;12897;50.812;4.430;2023-05-27T00:19:24;13.00;99.90
24800;DHT22;12897;50.812;4.430;2023-05-27T00:21:52;13.00;99.90
24800;DHT22;12897;50.812;4.430;2023-05-27T00:24:22;12.90;99.90
24800;DHT22;12897;50.812;4.430;2023-05-27T00:26:49;12.90;99.90
24800;DHT22;12897;50.812;4.430;2023-05-27T00:29:17;13.00;99.90
24800;DHT22;12897;50.812;4.430;2023-05-27T00:31:44;13.10;99.90
24800;DHT22;12897;50.812;4.430;2023-05-27T00:34:12;13.00;99.90
24800;DHT22;12897;50.812;4.430;2023-05-27T00:36:39;12.90;99.90
24800;DHT22;12897;50.812;4.430;2023-05-27T00:39:07;12.80;99.90
24800;DHT22;12897;50.812;4.430;2023-05-27T00:41:34;12.80;99.90
24800;DHT22;12897;50.812;4.430;2023-05-27T00:44:02;12.60;99.90
24800;DHT22;12897;50.812;4.430;2023-05-27T00:46:31;12.70;99.90
24800;DHT22;12897;50.812;4.430;2023-05-27T00:48:58;12.60;99.90
24800;DHT22;12897;50.812;4.430;2023-05-27T00:51:26;12.60;99.90
24800;DHT22;12897;50.812;4.430;2023-05-27T00:53:54;12.60;99.90
24800;DHT22;12897;50.812;4.430;2023-05-27T00:56:23;12.60;99.90
24800;DHT22;12897;50.812;4.430;2023-05-27T00:58:52;12.60;99.90
24800;DHT22;12897;50.812;4.430;2023-05-27T01:01:19;12.60;99.90
24800;DHT22;12897;50.812;4.430;2023-05-27T01:03:47;12.60;99.90
24800;DHT22;12897;50.812;4.430;2023-05-27T01:06:25;12.50;99.90
24800;DHT22;12897;50.812;4.430;2023-05-27T01:09:14;12.50;99.90
24800;DHT22;12897;50.812;4.430;2023-05-27T01:12:47;12.50;99.90
24800;DHT22;12897;50.812;4.430;2023-05-27T01:14:23;12.50;99.90
24800;DHT22;12897;50.812;4.430;2023-05-27T01:16:54;12.30;99.90
24800;DHT22;12897;50.812;4.430;2023-05-27T01:19:34;12.30;99.90
24800;DHT22;12897;50.812;4.430;2023-05-27T01:22:02;12.30;99.90
24800;DHT22;12897;50.812;4.430;2023-05-27T01:24:31;12.20;99.90
24800;DHT22;12897;50.812;4.430;2023-05-27T01:27:00;12.10;99.90
24800;DHT22;12897;50.812;4.430;2023-05-27T01:29:30;12.10;99.90
24800;DHT22;12897;50.812;4.430;2023-05-27T01:34:33;12.00;99.90
24800;DHT22;12897;50.812;4.430;2023-05-27T01:37:02;11.90;99.90
24800;DHT22;12897;50.812;4.430;2023-05-27T01:39:30;11.90;99.90
24800;DHT22;12897;50.812;4.430;2023-05-27T01:41:59;12.00;99.90
24800;DHT22;12897;50.812;4.430;2023-05-27T01:44:32;11.90;99.90
24800;DHT22;12897;50.812;4.430;2023-05-27T01:47:01;11.90;99.90
24800;DHT22;12897;50.812;4.430;2023-05-27T01:49:30;11.90;99.90
24800;DHT22;12897;50.812;4.430;2023-05-27T01:51:57;11.90;99.90
24800;DHT22;12897;50.812;4.430;2023-05-27T01:54:25;11.90;99.90
24800;DHT22;12897;50.812;4.430;2023-05-27T01:56:52;11.90;99.90
24800;DHT22;12897;50.812;4.430;2023-05-27T01:59:20;11.90;99.90
24800;DHT22;12897;50.812;4.430;2023-05-27T02:01:47;11.90;99.90
24800;DHT22;12897;50.812;4.430;2023-05-27T02:04:15;11.90;99.90
24800;DHT22;12897;50.812;4.430;2023-05-27T02:06:43;11.80;99.90
24800;DHT22;12897;50.812;4.430;2023-05-27T02:09:10;11.80;99.90
24800;DHT22;12897;50.812;4.430;2023-05-27T02:11:39;11.80;99.90
24800;DHT22;12897;50.812;4.430;2023-05-27T02:14:07;11.80;99.90
24800;DHT22;12897;50.812;4.430;2023-05-27T02:16:34;11.70;99.90
24800;DHT22;12897;50.812;4.430;2023-05-27T02:19:03;11.70;99.90
24800;DHT22;12897;50.812;4.430;2023-05-27T02:21:31;11.70;99.90
24800;DHT22;12897;50.812;4.430;2023-05-27T02:23:59;11.60;99.90
24800;DHT22;12897;50.812;4.430;2023-05-27T02:26:26;11.70;99.90
24800;DHT22;12897;50.812;4.430;2023-05-27T02:28:54;11.50;99.90
24800;DHT22;12897;50.812;4.430;2023-05-27T02:31:21;11.40;99.90
24800;DHT22;12897;50.812;4.430;2023-05-27T02:33:49;11.30;99.90
24800;DHT22;12897;50.812;4.430;2023-05-27T02:36:17;11.40;99.90
24800;DHT22;12897;50.812;4.430;2023-05-27T02:38:44;11.30;99.90
24800;DHT22;12897;50.812;4.430;2023-05-27T02:41:12;11.30;99.90
24800;DHT22;12897;50.812;4.430;2023-05-27T02:43:39;11.30;99.90
24800;DHT22;12897;50.812;4.430;2023-05-27T02:46:07;11.30;99.90
24800;DHT22;12897;50.812;4.430;2023-05-27T02:48:34;11.30;99.90
24800;DHT22;12897;50.812;4.430;2023-05-27T02:51:02;11.20;99.90
24800;DHT22;12897;50.812;4.430;2023-05-27T02:53:30;11.30;99.90
24800;DHT22;12897;50.812;4.430;2023-05-27T02:55:57;11.20;99.90
24800;DHT22;12897;50.812;4.430;2023-05-27T02:58:25;11.10;99.90
24800;DHT22;12897;50.812;4.430;2023-05-27T03:00:52;11.10;99.90
24800;DHT22;12897;50.812;4.430;2023-05-27T03:03:20;11.10;99.90
24800;DHT22;12897;50.812;4.430;2023-05-27T03:05:47;11.10;99.90
24800;DHT22;12897;50.812;4.430;2023-05-27T03:08:20;11.00;99.90
24800;DHT22;12897;50.812;4.430;2023-05-27T03:10:48;11.00;99.90
24800;DHT22;12897;50.812;4.430;2023-05-27T03:13:17;11.10;99.90
24800;DHT22;12897;50.812;4.430;2023-05-27T03:15:44;11.00;99.90
24800;DHT22;12897;50.812;4.430;2023-05-27T03:18:12;10.90;99.90
24800;DHT22;12897;50.812;4.430;2023-05-27T03:20:39;10.90;99.90
24800;DHT22;12897;50.812;4.430;2023-05-27T03:23:07;10.90;99.90
24800;DHT22;12897;50.812;4.430;2023-05-27T03:25:34;10.90;99.90
24800;DHT22;12897;50.812;4.430;2023-05-27T03:28:02;10.90;99.90
24800;DHT22;12897;50.812;4.430;2023-05-27T03:30:29;10.90;99.90
24800;DHT22;12897;50.812;4.430;2023-05-27T03:32:57;10.90;99.90
24800;DHT22;12897;50.812;4.430;2023-05-27T03:35:25;10.90;99.90
24800;DHT22;12897;50.812;4.430;2023-05-27T03:37:52;10.90;99.90
24800;DHT22;12897;50.812;4.430;2023-05-27T03:40:39;10.80;99.90
24800;DHT22;12897;50.812;4.430;2023-05-27T03:43:08;10.70;99.90
24800;DHT22;12897;50.812;4.430;2023-05-27T03:45:35;10.70;99.90
24800;DHT22;12897;50.812;4.430;2023-05-27T03:48:03;10.70;99.90
24800;DHT22;12897;50.812;4.430;2023-05-27T03:50:32;10.80;99.90
24800;DHT22;12897;50.812;4.430;2023-05-27T03:53:00;10.80;99.90
24800;DHT22;12897;50.812;4.430;2023-05-27T03:55:27;10.70;99.90
24800;DHT22;12897;50.812;4.430;2023-05-27T03:57:55;10.80;99.90
24800;DHT22;12897;50.812;4.430;2023-05-27T04:00:23;10.80;99.90
24800;DHT22;12897;50.812;4.430;2023-05-27T04:02:50;10.70;99.90
24800;DHT22;12897;50.812;4.430;2023-05-27T04:05:18;10.70;99.90
24800;DHT22;12897;50.812;4.430;2023-05-27T04:07:46;10.80;99.90
24800;DHT22;12897;50.812;4.430;2023-05-27T04:10:13;10.80;99.90
24800;DHT22;12897;50.812;4.430;2023-05-27T04:12:41;10.80;99.90
24800;DHT22;12897;50.812;4.430;2023-05-27T04:15:09;10.70;99.90
24800;DHT22;12897;50.812;4.430;2023-05-27T04:17:36;10.80;99.90
24800;DHT22;12897;50.812;4.430;2023-05-27T04:20:05;10.90;99.90
24800;DHT22;12897;50.812;4.430;2023-05-27T04:22:37;10.80;99.90
24800;DHT22;12897;50.812;4.430;2023-05-27T04:25:05;10.90;99.90
24800;DHT22;12897;50.812;4.430;2023-05-27T04:27:32;10.90;99.90
24800;DHT22;12897;50.812;4.430;2023-05-27T04:30:00;10.90;99.90
24800;DHT22;12897;50.812;4.430;2023-05-27T04:32:28;10.90;99.90
24800;DHT22;12897;50.812;4.430;2023-05-27T04:34:57;10.90;99.90
24800;DHT22;12897;50.812;4.430;2023-05-27T04:37:26;10.90;99.90
24800;DHT22;12897;50.812;4.430;2023-05-27T04:39:55;10.90;99.90
24800;DHT22;12897;50.812;4.430;2023-05-27T04:42:23;10.80;99.90
24800;DHT22;12897;50.812;4.430;2023-05-27T04:44:51;10.80;99.90
24800;DHT22;12897;50.812;4.430;2023-05-27T04:47:18;10.70;99.90
24800;DHT22;12897;50.812;4.430;2023-05-27T04:49:47;10.80;99.90
24800;DHT22;12897;50.812;4.430;2023-05-27T04:52:15;10.80;99.90
24800;DHT22;12897;50.812;4.430;2023-05-27T04:54:43;10.90;99.90
24800;DHT22;12897;50.812;4.430;2023-05-27T04:57:12;10.90;99.90
24800;DHT22;12897;50.812;4.430;2023-05-27T04:59:39;10.80;99.90
24800;DHT22;12897;50.812;4.430;2023-05-27T05:02:15;10.90;99.90
24800;DHT22;12897;50.812;4.430;2023-05-27T05:04:49;10.90;99.90
24800;DHT22;12897;50.812;4.430;2023-05-27T05:07:17;11.00;99.90
24800;DHT22;12897;50.812;4.430;2023-05-27T05:09:46;11.00;99.90
24800;DHT22;12897;50.812;4.430;2023-05-27T05:12:13;11.10;99.90
24800;DHT22;12897;50.812;4.430;2023-05-27T05:14:41;11.30;99.90
24800;DHT22;12897;50.812;4.430;2023-05-27T05:17:08;11.40;99.90
24800;DHT22;12897;50.812;4.430;2023-05-27T05:19:36;11.40;99.90
24800;DHT22;12897;50.812;4.430;2023-05-27T05:22:03;11.80;99.90
24800;DHT22;12897;50.812;4.430;2023-05-27T05:24:31;12.40;99.90
24800;DHT22;12897;50.812;4.430;2023-05-27T05:26:58;12.90;99.90
24800;DHT22;12897;50.812;4.430;2023-05-27T05:29:26;13.00;99.90
24800;DHT22;12897;50.812;4.430;2023-05-27T05:31:53;13.50;99.90
24800;DHT22;12897;50.812;4.430;2023-05-27T05:34:22;13.50;99.90
24800;DHT22;12897;50.812;4.430;2023-05-27T05:36:49;13.80;99.90
24800;DHT22;12897;50.812;4.430;2023-05-27T05:39:17;14.20;99.90
24800;DHT22;12897;50.812;4.430;2023-05-27T05:41:44;14.10;99.90
24800;DHT22;12897;50.812;4.430;2023-05-27T05:44:12;14.60;99.90
24800;DHT22;12897;50.812;4.430;2023-05-27T05:46:40;14.60;99.90
24800;DHT22;12897;50.812;4.430;2023-05-27T05:49:07;14.70;99.90
24800;DHT22;12897;50.812;4.430;2023-05-27T05:51:35;14.80;99.90
24800;DHT22;12897;50.812;4.430;2023-05-27T05:54:02;14.90;99.90
24800;DHT22;12897;50.812;4.430;2023-05-27T05:56:30;14.80;99.90
24800;DHT22;12897;50.812;4.430;2023-05-27T05:58:59;15.00;99.90
24800;DHT22;12897;50.812;4.430;2023-05-27T06:01:27;15.00;99.90
24800;DHT22;12897;50.812;4.430;2023-05-27T06:03:54;15.10;99.90
24800;DHT22;12897;50.812;4.430;2023-05-27T06:06:22;15.20;99.90
24800;DHT22;12897;50.812;4.430;2023-05-27T06:08:50;15.10;99.90
24800;DHT22;12897;50.812;4.430;2023-05-27T06:11:17;15.30;99.90
24800;DHT22;12897;50.812;4.430;2023-05-27T06:13:45;15.60;99.90
24800;DHT22;12897;50.812;4.430;2023-05-27T06:16:13;15.80;99.90
24800;DHT22;12897;50.812;4.430;2023-05-27T06:18:40;15.80;99.90
24800;DHT22;12897;50.812;4.430;2023-05-27T06:21:10;15.80;99.90
24800;DHT22;12897;50.812;4.430;2023-05-27T06:23:37;16.00;99.90
24800;DHT22;12897;50.812;4.430;2023-05-27T06:26:05;16.20;99.90
24800;DHT22;12897;50.812;4.430;2023-05-27T06:28:32;15.90;99.90
24800;DHT22;12897;50.812;4.430;2023-05-27T06:31:00;15.40;99.90
24800;DHT22;12897;50.812;4.430;2023-05-27T06:33:27;15.60;99.90
24800;DHT22;12897;50.812;4.430;2023-05-27T06:35:55;15.80;99.90
24800;DHT22;12897;50.812;4.430;2023-05-27T06:38:23;16.00;99.90
24800;DHT22;12897;50.812;4.430;2023-05-27T06:40:51;15.80;99.90
24800;DHT22;12897;50.812;4.430;2023-05-27T06:43:19;15.90;99.90
24800;DHT22;12897;50.812;4.430;2023-05-27T06:45:46;16.00;99.90
24800;DHT22;12897;50.812;4.430;2023-05-27T06:48:15;15.40;99.90
24800;DHT22;12897;50.812;4.430;2023-05-27T06:50:43;15.60;99.90
24800;DHT22;12897;50.812;4.430;2023-05-27T06:53:11;15.80;99.90
24800;DHT22;12897;50.812;4.430;2023-05-27T06:55:39;15.70;99.90
24800;DHT22;12897;50.812;4.430;2023-05-27T06:58:07;15.60;99.90
24800;DHT22;12897;50.812;4.430;2023-05-27T07:00:34;15.40;99.90
24800;DHT22;12897;50.812;4.430;2023-05-27T07:03:02;15.50;99.90
24800;DHT22;12897;50.812;4.430;2023-05-27T07:05:29;15.40;99.90
24800;DHT22;12897;50.812;4.430;2023-05-27T07:07:58;15.70;99.90
24800;DHT22;12897;50.812;4.430;2023-05-27T07:10:25;15.90;99.90
24800;DHT22;12897;50.812;4.430;2023-05-27T07:12:53;15.90;99.90
24800;DHT22;12897;50.812;4.430;2023-05-27T07:15:20;15.90;99.90
24800;DHT22;12897;50.812;4.430;2023-05-27T07:17:48;15.70;99.90
24800;DHT22;12897;50.812;4.430;2023-05-27T07:20:16;15.70;99.90
24800;DHT22;12897;50.812;4.430;2023-05-27T07:22:43;15.80;99.90
24800;DHT22;12897;50.812;4.430;2023-05-27T07:25:11;15.80;99.90
24800;DHT22;12897;50.812;4.430;2023-05-27T07:27:38;15.60;99.90
24800;DHT22;12897;50.812;4.430;2023-05-27T07:30:07;15.50;99.90
24800;DHT22;12897;50.812;4.430;2023-05-27T07:32:34;15.10;99.90
24800;DHT22;12897;50.812;4.430;2023-05-27T07:35:02;14.90;99.90
24800;DHT22;12897;50.812;4.430;2023-05-27T07:37:30;15.00;99.90
24800;DHT22;12897;50.812;4.430;2023-05-27T07:39:57;15.20;99.90
24800;DHT22;12897;50.812;4.430;2023-05-27T07:42:25;15.10;99.90
24800;DHT22;12897;50.812;4.430;2023-05-27T07:44:54;14.90;99.90
24800;DHT22;12897;50.812;4.430;2023-05-27T07:47:21;14.90;99.90
24800;DHT22;12897;50.812;4.430;2023-05-27T07:49:50;15.00;99.90
24800;DHT22;12897;50.812;4.430;2023-05-27T07:52:18;15.30;99.90
24800;DHT22;12897;50.812;4.430;2023-05-27T07:54:46;15.60;99.90
24800;DHT22;12897;50.812;4.430;2023-05-27T07:57:14;15.60;99.90
24800;DHT22;12897;50.812;4.430;2023-05-27T07:59:43;15.60;99.90
24800;DHT22;12897;50.812;4.430;2023-05-27T08:02:11;15.30;99.90
24800;DHT22;12897;50.812;4.430;2023-05-27T08:04:38;15.30;99.90
24800;DHT22;12897;50.812;4.430;2023-05-27T08:07:06;15.20;99.90
24800;DHT22;12897;50.812;4.430;2023-05-27T08:09:34;15.00;99.90
24800;DHT22;12897;50.812;4.430;2023-05-27T08:12:01;14.90;99.90
24800;DHT22;12897;50.812;4.430;2023-05-27T08:14:29;15.00;99.90
24800;DHT22;12897;50.812;4.430;2023-05-27T08:16:56;14.90;99.90
24800;DHT22;12897;50.812;4.430;2023-05-27T08:19:24;14.80;99.90
24800;DHT22;12897;50.812;4.430;2023-05-27T08:21:51;14.90;99.90
24800;DHT22;12897;50.812;4.430;2023-05-27T08:24:19;15.30;99.90
24800;DHT22;12897;50.812;4.430;2023-05-27T08:26:48;15.00;99.90
24800;DHT22;12897;50.812;4.430;2023-05-27T08:29:16;15.10;99.90
24800;DHT22;12897;50.812;4.430;2023-05-27T08:31:44;15.30;99.90
24800;DHT22;12897;50.812;4.430;2023-05-27T08:34:11;15.20;99.90
24800;DHT22;12897;50.812;4.430;2023-05-27T08:36:39;15.30;99.90
24800;DHT22;12897;50.812;4.430;2023-05-27T08:39:06;15.30;99.90
24800;DHT22;12897;50.812;4.430;2023-05-27T08:41:34;15.70;99.90
24800;DHT22;12897;50.812;4.430;2023-05-27T08:44:03;16.00;99.90
24800;DHT22;12897;50.812;4.430;2023-05-27T08:46:31;16.20;99.90
24800;DHT22;12897;50.812;4.430;2023-05-27T08:48:59;16.10;99.90
24800;DHT22;12897;50.812;4.430;2023-05-27T08:51:27;16.00;99.90
24800;DHT22;12897;50.812;4.430;2023-05-27T08:53:55;15.90;99.90
24800;DHT22;12897;50.812;4.430;2023-05-27T08:56:22;16.10;99.90
24800;DHT22;12897;50.812;4.430;2023-05-27T08:58:51;16.00;99.90
24800;DHT22;12897;50.812;4.430;2023-05-27T09:01:22;16.10;99.90
24800;DHT22;12897;50.812;4.430;2023-05-27T09:03:50;16.30;99.90
24800;DHT22;12897;50.812;4.430;2023-05-27T09:06:17;16.40;99.90
24800;DHT22;12897;50.812;4.430;2023-05-27T09:08:45;16.50;99.90
24800;DHT22;12897;50.812;4.430;2023-05-27T09:11:25;16.80;99.90
24800;DHT22;12897;50.812;4.430;2023-05-27T09:13:55;16.90;99.90
24800;DHT22;12897;50.812;4.430;2023-05-27T09:16:23;16.60;99.90
24800;DHT22;12897;50.812;4.430;2023-05-27T09:18:51;16.60;99.90
24800;DHT22;12897;50.812;4.430;2023-05-27T09:21:18;16.80;99.90
24800;DHT22;12897;50.812;4.430;2023-05-27T09:23:46;16.80;99.90
24800;DHT22;12897;50.812;4.430;2023-05-27T09:26:13;16.70;99.90
24800;DHT22;12897;50.812;4.430;2023-05-27T09:28:41;16.80;99.90
24800;DHT22;12897;50.812;4.430;2023-05-27T09:31:09;16.90;99.90
24800;DHT22;12897;50.812;4.430;2023-05-27T09:33:39;16.90;99.90
24800;DHT22;12897;50.812;4.430;2023-05-27T09:36:07;17.10;99.90
24800;DHT22;12897;50.812;4.430;2023-05-27T09:38:36;17.20;99.90
24800;DHT22;12897;50.812;4.430;2023-05-27T09:41:03;17.40;99.90
24800;DHT22;12897;50.812;4.430;2023-05-27T09:43:31;17.20;99.90
24800;DHT22;12897;50.812;4.430;2023-05-27T09:46:01;17.60;99.90
24800;DHT22;12897;50.812;4.430;2023-05-27T09:48:30;17.80;99.90
24800;DHT22;12897;50.812;4.430;2023-05-27T09:51:01;17.90;99.90
24800;DHT22;12897;50.812;4.430;2023-05-27T09:53:30;17.90;99.90
24800;DHT22;12897;50.812;4.430;2023-05-27T09:55:58;18.00;99.90
24800;DHT22;12897;50.812;4.430;2023-05-27T09:58:26;17.90;99.90
24800;DHT22;12897;50.812;4.430;2023-05-27T10:00:55;18.10;99.90
24800;DHT22;12897;50.812;4.430;2023-05-27T10:03:23;18.20;99.90
24800;DHT22;12897;50.812;4.430;2023-05-27T10:05:51;18.20;99.90
24800;DHT22;12897;50.812;4.430;2023-05-27T10:08:19;18.20;99.90
24800;DHT22;12897;50.812;4.430;2023-05-27T10:10:47;18.00;99.90
24800;DHT22;12897;50.812;4.430;2023-05-27T10:13:16;18.00;99.90
24800;DHT22;12897;50.812;4.430;2023-05-27T10:15:51;17.90;99.90
24800;DHT22;12897;50.812;4.430;2023-05-27T10:18:26;17.90;99.90
24800;DHT22;12897;50.812;4.430;2023-05-27T10:20:57;17.90;99.90
24800;DHT22;12897;50.812;4.430;2023-05-27T10:23:29;18.00;99.90
24800;DHT22;12897;50.812;4.430;2023-05-27T10:26:07;18.10;99.90
24800;DHT22;12897;50.812;4.430;2023-05-27T10:28:39;18.30;99.90
24800;DHT22;12897;50.812;4.430;2023-05-27T10:31:16;18.50;99.90
24800;DHT22;12897;50.812;4.430;2023-05-27T10:33:50;18.60;99.90
24800;DHT22;12897;50.812;4.430;2023-05-27T10:36:23;18.60;99.90
24800;DHT22;12897;50.812;4.430;2023-05-27T10:39:06;18.80;99.90
24800;DHT22;12897;50.812;4.430;2023-05-27T10:41:49;18.80;99.90
24800;DHT22;12897;50.812;4.430;2023-05-27T10:44:38;18.90;99.90
24800;DHT22;12897;50.812;4.430;2023-05-27T10:47:04;18.80;99.90
24800;DHT22;12897;50.812;4.430;2023-05-27T10:49:35;18.70;99.90
24800;DHT22;12897;50.812;4.430;2023-05-27T10:52:08;18.70;99.90
24800;DHT22;12897;50.812;4.430;2023-05-27T10:54:46;18.60;99.90
24800;DHT22;12897;50.812;4.430;2023-05-27T10:57:17;18.70;99.90
24800;DHT22;12897;50.812;4.430;2023-05-27T10:59:54;18.90;99.90
24800;DHT22;12897;50.812;4.430;2023-05-27T11:02:22;19.10;99.90
24800;DHT22;12897;50.812;4.430;2023-05-27T11:04:51;19.20;99.90
24800;DHT22;12897;50.812;4.430;2023-05-27T11:07:19;19.20;99.90
24800;DHT22;12897;50.812;4.430;2023-05-27T11:09:53;18.90;99.90
24800;DHT22;12897;50.812;4.430;2023-05-27T11:12:22;19.20;99.90
24800;DHT22;12897;50.812;4.430;2023-05-27T11:14:54;19.50;99.90
24800;DHT22;12897;50.812;4.430;2023-05-27T11:17:22;19.70;99.90
24800;DHT22;12897;50.812;4.430;2023-05-27T11:19:50;19.80;99.90
24800;DHT22;12897;50.812;4.430;2023-05-27T11:22:19;19.60;99.90
24800;DHT22;12897;50.812;4.430;2023-05-27T11:24:57;19.80;99.90
24800;DHT22;12897;50.812;4.430;2023-05-27T11:27:33;19.60;99.90
24800;DHT22;12897;50.812;4.430;2023-05-27T11:30:06;19.40;99.90
24800;DHT22;12897;50.812;4.430;2023-05-27T11:32:36;19.40;99.90
24800;DHT22;12897;50.812;4.430;2023-05-27T11:35:04;19.70;99.90
24800;DHT22;12897;50.812;4.430;2023-05-27T11:37:35;19.70;99.90
24800;DHT22;12897;50.812;4.430;2023-05-27T11:40:10;19.70;99.90
24800;DHT22;12897;50.812;4.430;2023-05-27T11:42:34;19.90;99.90
24800;DHT22;12897;50.812;4.430;2023-05-27T11:45:02;20.10;99.90
24800;DHT22;12897;50.812;4.430;2023-05-27T11:47:31;20.30;99.90
24800;DHT22;12897;50.812;4.430;2023-05-27T11:49:59;19.90;99.90
24800;DHT22;12897;50.812;4.430;2023-05-27T11:52:26;20.00;99.90
24800;DHT22;12897;50.812;4.430;2023-05-27T11:54:54;20.30;99.90
24800;DHT22;12897;50.812;4.430;2023-05-27T11:57:21;20.00;99.90
24800;DHT22;12897;50.812;4.430;2023-05-27T11:59:49;20.20;99.90
24800;DHT22;12897;50.812;4.430;2023-05-27T12:02:16;20.50;99.90
24800;DHT22;12897;50.812;4.430;2023-05-27T12:04:46;20.70;99.90
24800;DHT22;12897;50.812;4.430;2023-05-27T12:07:13;20.80;99.40
24800;DHT22;12897;50.812;4.430;2023-05-27T12:09:41;20.90;99.50
24800;DHT22;12897;50.812;4.430;2023-05-27T12:12:08;21.10;98.20
24800;DHT22;12897;50.812;4.430;2023-05-27T12:14:36;21.20;97.10
24800;DHT22;12897;50.812;4.430;2023-05-27T12:17:04;21.30;97.30
24800;DHT22;12897;50.812;4.430;2023-05-27T12:19:31;21.10;97.90
24800;DHT22;12897;50.812;4.430;2023-05-27T12:22:00;20.50;99.70
24800;DHT22;12897;50.812;4.430;2023-05-27T12:24:28;20.60;99.50
24800;DHT22;12897;50.812;4.430;2023-05-27T12:26:57;20.80;98.50
24800;DHT22;12897;50.812;4.430;2023-05-27T12:29:24;20.80;99.50
24800;DHT22;12897;50.812;4.430;2023-05-27T12:31:53;21.20;97.60
24800;DHT22;12897;50.812;4.430;2023-05-27T12:34:41;21.30;97.20
24800;DHT22;12897;50.812;4.430;2023-05-27T12:37:09;21.30;93.30
24800;DHT22;12897;50.812;4.430;2023-05-27T12:39:37;21.40;94.30
24800;DHT22;12897;50.812;4.430;2023-05-27T12:42:05;21.30;95.00
24800;DHT22;12897;50.812;4.430;2023-05-27T12:44:32;21.10;94.70
24800;DHT22;12897;50.812;4.430;2023-05-27T12:47:00;20.90;96.00
24800;DHT22;12897;50.812;4.430;2023-05-27T12:49:27;21.10;95.60
24800;DHT22;12897;50.812;4.430;2023-05-27T12:51:55;21.10;95.30
24800;DHT22;12897;50.812;4.430;2023-05-27T12:54:22;21.10;94.70
24800;DHT22;12897;50.812;4.430;2023-05-27T12:56:50;20.80;94.40
24800;DHT22;12897;50.812;4.430;2023-05-27T12:59:18;20.80;94.70
24800;DHT22;12897;50.812;4.430;2023-05-27T13:01:47;21.00;94.10
24800;DHT22;12897;50.812;4.430;2023-05-27T13:04:14;21.20;94.20
24800;DHT22;12897;50.812;4.430;2023-05-27T13:06:42;21.10;94.10
24800;DHT22;12897;50.812;4.430;2023-05-27T13:09:10;21.00;94.40
24800;DHT22;12897;50.812;4.430;2023-05-27T13:11:37;21.10;92.10
24800;DHT22;12897;50.812;4.430;2023-05-27T13:14:05;21.30;91.70
24800;DHT22;12897;50.812;4.430;2023-05-27T13:16:33;21.50;91.70
24800;DHT22;12897;50.812;4.430;2023-05-27T13:19:01;21.50;92.00
24800;DHT22;12897;50.812;4.430;2023-05-27T13:21:29;21.50;93.70
24800;DHT22;12897;50.812;4.430;2023-05-27T13:23:56;21.40;93.10
24800;DHT22;12897;50.812;4.430;2023-05-27T13:26:24;21.20;95.10
24800;DHT22;12897;50.812;4.430;2023-05-27T13:28:52;21.40;94.90
24800;DHT22;12897;50.812;4.430;2023-05-27T13:31:19;21.60;93.50
24800;DHT22;12897;50.812;4.430;2023-05-27T13:33:47;21.60;91.80
24800;DHT22;12897;50.812;4.430;2023-05-27T13:36:15;21.70;91.50
24800;DHT22;12897;50.812;4.430;2023-05-27T13:38:42;21.30;91.90
24800;DHT22;12897;50.812;4.430;2023-05-27T13:41:10;21.30;91.30
24800;DHT22;12897;50.812;4.430;2023-05-27T13:43:37;21.20;90.00
24800;DHT22;12897;50.812;4.430;2023-05-27T13:46:05;21.20;90.70
24800;DHT22;12897;50.812;4.430;2023-05-27T13:48:32;21.20;90.40
24800;DHT22;12897;50.812;4.430;2023-05-27T13:51:00;21.40;90.90
24800;DHT22;12897;50.812;4.430;2023-05-27T13:53:28;21.60;90.30
24800;DHT22;12897;50.812;4.430;2023-05-27T13:55:56;21.80;89.90
24800;DHT22;12897;50.812;4.430;2023-05-27T13:58:24;21.50;90.10
24800;DHT22;12897;50.812;4.430;2023-05-27T14:00:51;21.70;91.40
24800;DHT22;12897;50.812;4.430;2023-05-27T14:03:20;21.80;90.80
24800;DHT22;12897;50.812;4.430;2023-05-27T14:05:47;22.00;89.70
24800;DHT22;12897;50.812;4.430;2023-05-27T14:08:16;22.00;89.10
24800;DHT22;12897;50.812;4.430;2023-05-27T14:10:44;22.00;90.00
24800;DHT22;12897;50.812;4.430;2023-05-27T14:13:11;21.90;90.10
24800;DHT22;12897;50.812;4.430;2023-05-27T14:15:40;22.00;90.10
24800;DHT22;12897;50.812;4.430;2023-05-27T14:18:07;21.60;90.50
24800;DHT22;12897;50.812;4.430;2023-05-27T14:20:35;21.60;91.40
24800;DHT22;12897;50.812;4.430;2023-05-27T14:23:02;21.60;90.70
24800;DHT22;12897;50.812;4.430;2023-05-27T14:25:31;21.60;90.60
24800;DHT22;12897;50.812;4.430;2023-05-27T14:27:58;21.80;91.00
24800;DHT22;12897;50.812;4.430;2023-05-27T14:30:28;22.20;89.30
24800;DHT22;12897;50.812;4.430;2023-05-27T14:32:57;22.20;88.30
24800;DHT22;12897;50.812;4.430;2023-05-27T14:35:26;21.80;87.20
24800;DHT22;12897;50.812;4.430;2023-05-27T14:37:54;21.70;86.30
24800;DHT22;12897;50.812;4.430;2023-05-27T14:40:21;21.70;85.10
24800;DHT22;12897;50.812;4.430;2023-05-27T14:42:49;21.70;82.60
24800;DHT22;12897;50.812;4.430;2023-05-27T14:45:16;22.00;83.20
24800;DHT22;12897;50.812;4.430;2023-05-27T14:47:46;22.20;80.60
24800;DHT22;12897;50.812;4.430;2023-05-27T14:50:13;22.40;79.80
24800;DHT22;12897;50.812;4.430;2023-05-27T14:52:41;22.50;80.40
24800;DHT22;12897;50.812;4.430;2023-05-27T14:55:09;22.70;80.80
24800;DHT22;12897;50.812;4.430;2023-05-27T14:57:36;22.50;83.10
24800;DHT22;12897;50.812;4.430;2023-05-27T15:00:04;22.10;85.10
24800;DHT22;12897;50.812;4.430;2023-05-27T15:02:32;22.10;85.30
24800;DHT22;12897;50.812;4.430;2023-05-27T15:05:00;22.20;86.50
24800;DHT22;12897;50.812;4.430;2023-05-27T15:07:28;22.50;83.50
24800;DHT22;12897;50.812;4.430;2023-05-27T15:09:55;22.50;84.70
24800;DHT22;12897;50.812;4.430;2023-05-27T15:12:24;22.70;84.60
24800;DHT22;12897;50.812;4.430;2023-05-27T15:14:51;22.50;84.40
24800;DHT22;12897;50.812;4.430;2023-05-27T15:17:19;22.60;85.20
24800;DHT22;12897;50.812;4.430;2023-05-27T15:19:47;22.50;85.20
24800;DHT22;12897;50.812;4.430;2023-05-27T15:22:15;22.70;84.30
24800;DHT22;12897;50.812;4.430;2023-05-27T15:24:42;22.80;81.80
24800;DHT22;12897;50.812;4.430;2023-05-27T15:27:10;23.00;81.30
24800;DHT22;12897;50.812;4.430;2023-05-27T15:29:37;22.80;80.70
24800;DHT22;12897;50.812;4.430;2023-05-27T15:32:05;22.40;81.90
24800;DHT22;12897;50.812;4.430;2023-05-27T15:34:33;22.20;82.40
24800;DHT22;12897;50.812;4.430;2023-05-27T15:37:00;22.40;85.00
24800;DHT22;12897;50.812;4.430;2023-05-27T15:39:28;22.60;83.20
24800;DHT22;12897;50.812;4.430;2023-05-27T15:41:55;22.40;82.50